METAR Data
IDs: Format: Raw Decoded Include TAF

Data at: 2113 UTC 18 Sep 2018

KLVJ 182053Z AUTO 19004KT 10SM FEW065 SCT080 34/23 A2991 RMK AO2 SLP129 T03390233 56024
KLVJ 181953Z AUTO 16004KT 10SM FEW060 FEW075 34/23 A2993 RMK AO2 SLP134 T03440228
KLVJ 181853Z AUTO 00000KT 10SM CLR 34/23 A2995 RMK AO2 SLP141 T03390233
KLVJ 181753Z AUTO 22003KT 10SM CLR 33/24 A2999 RMK AO2 SLP153 T03280239 10333 20250 58011
KLVJ 181653Z AUTO 31004KT 10SM CLR 33/23 A3000 RMK AO2 SLP159 T03330233
KLVJ 181553Z AUTO 36004KT 10SM CLR 32/24 A3002 RMK AO2 SLP164 T03170239
KLVJ 181453Z AUTO 30004KT 10SM CLR 29/24 A3002 RMK AO2 SLP164 T02940239 51008
KLVJ 181353Z AUTO 31003KT 10SM CLR 28/25 A3001 RMK AO2 SLP162 T02780250
KLVJ 181253Z AUTO 00000KT 10SM CLR 26/25 A3001 RMK AO2 SLP160 T02560250
KLVJ 181153Z AUTO 00000KT 10SM CLR 25/25 A2999 RMK AO2 SLP156 T02500250 10261 20250 53008
KLVJ 181053Z AUTO 00000KT 10SM CLR 25/24 A2998 RMK AO2 SLP150 T02500244
KLVJ 180953Z AUTO 00000KT 10SM CLR 25/25 A2997 RMK AO2 SLP146 T02500250
KLVJ 180853Z AUTO 00000KT 10SM CLR 25/25 A2997 RMK AO2 SLP147 T02500250 56005
KLVJ 180753Z AUTO 00000KT 10SM CLR 26/25 A2997 RMK AO2 SLP148 T02560250
KLVJ 180653Z AUTO 00000KT 10SM CLR 26/25 A2998 RMK AO2 SLP150 T02610250
KLVJ 180553Z AUTO 00000KT 10SM CLR 27/25 A2998 RMK AO2 SLP153 T02670250 10328 20261 403440239 50005
KLVJ 180453Z AUTO 25003KT 10SM CLR 27/26 A2999 RMK AO2 SLP153 T02670256
KLVJ 180353Z AUTO 00000KT 10SM CLR 27/26 A2999 RMK AO2 SLP153 T02720256 TSNO
KLVJ 180253Z AUTO 00000KT 10SM CLR 28/26 A2997 RMK AO2 SLP147 T02780256 53019 TSNO
KLVJ 180153Z AUTO 16003KT 10SM CLR 28/26 A2995 RMK AO2 SLP140 T02830256
KLVJ 180053Z AUTO 15006KT 10SM CLR 30/26 A2993 RMK AO2 SLP133 T03000256
KLVJ 172353Z AUTO 00000KT 10SM FEW055 33/23 A2991 RMK AO2 SLP128 T03280233 10344 20322 56006
KLVJ 172253Z AUTO 00000KT 10SM CLR 34/22 A2991 RMK AO2 SLP128 T03390222
KLVJ 172153Z AUTO 20004KT 10SM CLR 34/23 A2992 RMK AO2 SLP130 T03390228
KLVJ 172053Z AUTO VRB04KT 10SM FEW050 34/22 A2993 RMK AO2 SLP134 T03390222 56021
KLVJ 171953Z AUTO VRB03KT 10SM CLR 34/22 A2994 RMK AO2 SLP139 T03440222
KLVJ 171853Z AUTO VRB03KT 10SM CLR 33/23 A2997 RMK AO2 SLP148 T03280228
KLVJ 171753Z AUTO 28004KT 10SM CLR 33/23 A2999 RMK AO2 SLP154 T03280233 10333 20239 58007
KLVJ 171653Z AUTO 30006KT 10SM CLR 32/23 A3001 RMK AO2 SLP160 T03170233
KLVJ 171553Z AUTO VRB04KT 10SM CLR 31/23 A3001 RMK AO2 SLP162 T03060233
KLVJ 171453Z AUTO 31003KT 10SM CLR 28/24 A3001 RMK AO2 SLP162 T02780244 51017
KLVJ 171353Z AUTO 27003KT 10SM CLR 26/24 A3000 RMK AO2 SLP156 T02560244
KLVJ 171253Z AUTO 00000KT 10SM CLR 24/24 A2998 RMK AO2 SLP152 T02440244
KLVJ 171153Z AUTO 26003KT 10SM CLR 24/24 A2996 RMK AO2 SLP145 T02440239 10256 20239 53010
KLVJ 171053Z AUTO 00000KT 10SM CLR 24/24 A2994 RMK AO2 SLP138 T02390239 $
KLVJ 170953Z AUTO 00000KT 10SM CLR 24/24 A2993 RMK AO2 SLP135 T02390239 $